sensor_id;sensor_type;location;lat;lon;timestamp;temperature;humidity
59961;DHT22;55902;-37.980;-63.602;2024-01-16T00:00:15;27.60;55.60
59961;DHT22;55902;-37.980;-63.602;2024-01-16T00:02:45;27.30;55.10
59961;DHT22;55902;-37.980;-63.602;2024-01-16T00:05:12;27.00;56.70
59961;DHT22;55902;-37.980;-63.602;2024-01-16T00:07:40;26.70;54.80
59961;DHT22;55902;-37.980;-63.602;2024-01-16T00:10:10;26.60;55.70
59961;DHT22;55902;-37.980;-63.602;2024-01-16T00:12:37;26.40;53.90
59961;DHT22;55902;-37.980;-63.602;2024-01-16T00:15:06;26.30;54.30
59961;DHT22;55902;-37.980;-63.602;2024-01-16T00:17:34;26.30;51.90
59961;DHT22;55902;-37.980;-63.602;2024-01-16T00:20:01;26.10;51.40
59961;DHT22;55902;-37.980;-63.602;2024-01-16T00:22:30;26.00;51.60
59961;DHT22;55902;-37.980;-63.602;2024-01-16T00:24:57;25.90;56.10
59961;DHT22;55902;-37.980;-63.602;2024-01-16T00:27:24;25.70;54.50
59961;DHT22;55902;-37.980;-63.602;2024-01-16T00:29:52;25.60;53.80
59961;DHT22;55902;-37.980;-63.602;2024-01-16T00:32:23;25.50;54.60
59961;DHT22;55902;-37.980;-63.602;2024-01-16T00:34:50;25.50;52.00
59961;DHT22;55902;-37.980;-63.602;2024-01-16T00:37:17;25.50;53.00
59961;DHT22;55902;-37.980;-63.602;2024-01-16T00:39:44;25.50;51.50
59961;DHT22;55902;-37.980;-63.602;2024-01-16T00:42:11;25.60;55.20
59961;DHT22;55902;-37.980;-63.602;2024-01-16T00:44:38;25.60;54.10
59961;DHT22;55902;-37.980;-63.602;2024-01-16T00:47:04;25.60;58.80
59961;DHT22;55902;-37.980;-63.602;2024-01-16T00:49:36;25.60;57.50
59961;DHT22;55902;-37.980;-63.602;2024-01-16T00:52:03;25.60;54.70
59961;DHT22;55902;-37.980;-63.602;2024-01-16T00:54:34;25.70;54.10
59961;DHT22;55902;-37.980;-63.602;2024-01-16T00:57:01;25.70;53.30
59961;DHT22;55902;-37.980;-63.602;2024-01-16T00:59:28;25.60;53.60
59961;DHT22;55902;-37.980;-63.602;2024-01-16T01:01:55;25.60;54.70
59961;DHT22;55902;-37.980;-63.602;2024-01-16T01:04:22;25.50;53.80
59961;DHT22;55902;-37.980;-63.602;2024-01-16T01:06:49;25.50;54.30
59961;DHT22;55902;-37.980;-63.602;2024-01-16T01:09:16;25.50;56.30
59961;DHT22;55902;-37.980;-63.602;2024-01-16T01:11:43;25.40;58.20
59961;DHT22;55902;-37.980;-63.602;2024-01-16T01:14:10;25.40;55.10
59961;DHT22;55902;-37.980;-63.602;2024-01-16T01:16:37;25.40;53.60
59961;DHT22;55902;-37.980;-63.602;2024-01-16T01:19:04;25.40;54.50
59961;DHT22;55902;-37.980;-63.602;2024-01-16T01:21:31;25.40;54.90
59961;DHT22;55902;-37.980;-63.602;2024-01-16T01:23:58;25.30;54.30
59961;DHT22;55902;-37.980;-63.602;2024-01-16T01:26:29;25.30;53.90
59961;DHT22;55902;-37.980;-63.602;2024-01-16T01:28:59;25.30;54.60
59961;DHT22;55902;-37.980;-63.602;2024-01-16T01:31:26;25.30;54.20
59961;DHT22;55902;-37.980;-63.602;2024-01-16T01:33:53;25.30;53.90
59961;DHT22;55902;-37.980;-63.602;2024-01-16T01:36:20;25.30;53.80
59961;DHT22;55902;-37.980;-63.602;2024-01-16T01:38:47;25.30;53.40
59961;DHT22;55902;-37.980;-63.602;2024-01-16T01:41:17;25.40;52.70
59961;DHT22;55902;-37.980;-63.602;2024-01-16T01:43:44;25.40;53.80
59961;DHT22;55902;-37.980;-63.602;2024-01-16T01:46:21;25.50;52.70
59961;DHT22;55902;-37.980;-63.602;2024-01-16T01:48:48;25.50;52.30
59961;DHT22;55902;-37.980;-63.602;2024-01-16T01:51:20;25.50;51.80
59961;DHT22;55902;-37.980;-63.602;2024-01-16T01:53:49;25.60;53.00
59961;DHT22;55902;-37.980;-63.602;2024-01-16T01:56:18;25.60;55.80
59961;DHT22;55902;-37.980;-63.602;2024-01-16T01:58:47;25.60;56.90
59961;DHT22;55902;-37.980;-63.602;2024-01-16T02:01:17;25.50;56.70
59961;DHT22;55902;-37.980;-63.602;2024-01-16T02:03:50;25.50;58.50
59961;DHT22;55902;-37.980;-63.602;2024-01-16T02:06:17;25.50;57.70
59961;DHT22;55902;-37.980;-63.602;2024-01-16T02:08:47;25.40;58.90
59961;DHT22;55902;-37.980;-63.602;2024-01-16T02:11:14;25.40;60.70
59961;DHT22;55902;-37.980;-63.602;2024-01-16T02:13:42;25.30;59.20
59961;DHT22;55902;-37.980;-63.602;2024-01-16T02:16:21;25.30;61.40
59961;DHT22;55902;-37.980;-63.602;2024-01-16T02:18:49;25.20;62.30
59961;DHT22;55902;-37.980;-63.602;2024-01-16T02:21:26;25.10;62.20
59961;DHT22;55902;-37.980;-63.602;2024-01-16T02:23:54;25.00;63.90
59961;DHT22;55902;-37.980;-63.602;2024-01-16T02:26:21;24.90;66.50
59961;DHT22;55902;-37.980;-63.602;2024-01-16T02:28:48;24.70;68.10
59961;DHT22;55902;-37.980;-63.602;2024-01-16T02:41:24;24.10;72.50
59961;DHT22;55902;-37.980;-63.602;2024-01-16T02:43:51;24.00;72.20
59961;DHT22;55902;-37.980;-63.602;2024-01-16T02:46:22;23.90;72.40
59961;DHT22;55902;-37.980;-63.602;2024-01-16T02:48:49;23.90;71.80
59961;DHT22;55902;-37.980;-63.602;2024-01-16T02:51:19;23.90;72.60
59961;DHT22;55902;-37.980;-63.602;2024-01-16T02:53:46;23.80;73.70
59961;DHT22;55902;-37.980;-63.602;2024-01-16T02:56:13;23.70;75.80
59961;DHT22;55902;-37.980;-63.602;2024-01-16T02:58:40;23.40;76.50
59961;DHT22;55902;-37.980;-63.602;2024-01-16T03:01:08;23.20;76.40
59961;DHT22;55902;-37.980;-63.602;2024-01-16T03:03:35;23.00;77.70
59961;DHT22;55902;-37.980;-63.602;2024-01-16T03:06:01;23.00;77.40
59961;DHT22;55902;-37.980;-63.602;2024-01-16T03:08:28;23.00;77.50
59961;DHT22;55902;-37.980;-63.602;2024-01-16T03:10:55;22.90;76.50
59961;DHT22;55902;-37.980;-63.602;2024-01-16T03:13:23;22.90;77.60
59961;DHT22;55902;-37.980;-63.602;2024-01-16T03:15:56;22.80;77.60
59961;DHT22;55902;-37.980;-63.602;2024-01-16T03:18:23;22.80;77.30
59961;DHT22;55902;-37.980;-63.602;2024-01-16T03:20:50;22.70;77.60
59961;DHT22;55902;-37.980;-63.602;2024-01-16T03:23:21;22.80;78.00
59961;DHT22;55902;-37.980;-63.602;2024-01-16T03:25:48;22.70;77.30
59961;DHT22;55902;-37.980;-63.602;2024-01-16T03:28:16;22.80;75.10
59961;DHT22;55902;-37.980;-63.602;2024-01-16T03:30:43;22.90;72.70
59961;DHT22;55902;-37.980;-63.602;2024-01-16T03:33:10;23.00;74.10
59961;DHT22;55902;-37.980;-63.602;2024-01-16T03:35:37;23.10;75.90
59961;DHT22;55902;-37.980;-63.602;2024-01-16T03:38:04;23.20;76.40
59961;DHT22;55902;-37.980;-63.602;2024-01-16T03:40:31;23.20;76.50
59961;DHT22;55902;-37.980;-63.602;2024-01-16T03:43:01;23.10;73.50
59961;DHT22;55902;-37.980;-63.602;2024-01-16T03:45:28;22.80;72.40
59961;DHT22;55902;-37.980;-63.602;2024-01-16T03:47:55;22.60;72.00
59961;DHT22;55902;-37.980;-63.602;2024-01-16T03:50:25;22.60;69.30
59961;DHT22;55902;-37.980;-63.602;2024-01-16T03:52:52;22.90;69.10
59961;DHT22;55902;-37.980;-63.602;2024-01-16T03:55:19;23.00;68.40
59961;DHT22;55902;-37.980;-63.602;2024-01-16T03:57:47;23.20;68.40
59961;DHT22;55902;-37.980;-63.602;2024-01-16T04:00:15;23.30;67.70
59961;DHT22;55902;-37.980;-63.602;2024-01-16T04:02:41;23.50;66.80
59961;DHT22;55902;-37.980;-63.602;2024-01-16T04:05:08;23.60;65.60
59961;DHT22;55902;-37.980;-63.602;2024-01-16T04:07:36;23.70;64.60
59961;DHT22;55902;-37.980;-63.602;2024-01-16T04:10:03;23.70;63.80
59961;DHT22;55902;-37.980;-63.602;2024-01-16T04:12:31;23.70;64.50
59961;DHT22;55902;-37.980;-63.602;2024-01-16T04:14:58;23.70;69.40
59961;DHT22;55902;-37.980;-63.602;2024-01-16T04:17:25;23.50;72.50
59961;DHT22;55902;-37.980;-63.602;2024-01-16T04:19:55;23.30;74.20
59961;DHT22;55902;-37.980;-63.602;2024-01-16T04:22:22;23.10;75.60
59961;DHT22;55902;-37.980;-63.602;2024-01-16T04:24:49;22.90;76.90
59961;DHT22;55902;-37.980;-63.602;2024-01-16T04:27:16;22.70;77.60
59961;DHT22;55902;-37.980;-63.602;2024-01-16T04:29:46;22.50;79.50
59961;DHT22;55902;-37.980;-63.602;2024-01-16T04:35:33;22.30;80.90
59961;DHT22;55902;-37.980;-63.602;2024-01-16T04:38:00;22.20;80.90
59961;DHT22;55902;-37.980;-63.602;2024-01-16T04:40:30;22.10;80.90
59961;DHT22;55902;-37.980;-63.602;2024-01-16T04:42:57;22.10;81.10
59961;DHT22;55902;-37.980;-63.602;2024-01-16T04:45:28;22.10;80.90
59961;DHT22;55902;-37.980;-63.602;2024-01-16T04:47:58;22.10;81.10
59961;DHT22;55902;-37.980;-63.602;2024-01-16T04:50:28;22.10;80.50
59961;DHT22;55902;-37.980;-63.602;2024-01-16T04:53:01;22.10;80.90
59961;DHT22;55902;-37.980;-63.602;2024-01-16T04:55:29;22.10;80.60
59961;DHT22;55902;-37.980;-63.602;2024-01-16T04:57:57;22.10;80.60
59961;DHT22;55902;-37.980;-63.602;2024-01-16T05:00:26;22.20;80.30
59961;DHT22;55902;-37.980;-63.602;2024-01-16T05:02:53;22.20;79.10
59961;DHT22;55902;-37.980;-63.602;2024-01-16T05:05:20;22.20;78.50
59961;DHT22;55902;-37.980;-63.602;2024-01-16T05:07:47;22.30;77.80
59961;DHT22;55902;-37.980;-63.602;2024-01-16T05:10:14;22.40;77.50
59961;DHT22;55902;-37.980;-63.602;2024-01-16T05:12:41;22.50;76.50
59961;DHT22;55902;-37.980;-63.602;2024-01-16T05:15:09;22.50;75.80
59961;DHT22;55902;-37.980;-63.602;2024-01-16T05:17:37;22.60;75.60
59961;DHT22;55902;-37.980;-63.602;2024-01-16T05:20:05;22.70;74.30
59961;DHT22;55902;-37.980;-63.602;2024-01-16T05:22:32;22.80;73.80
59961;DHT22;55902;-37.980;-63.602;2024-01-16T05:24:59;22.80;74.00
59961;DHT22;55902;-37.980;-63.602;2024-01-16T05:27:27;22.80;75.40
59961;DHT22;55902;-37.980;-63.602;2024-01-16T05:29:54;22.80;75.80
59961;DHT22;55902;-37.980;-63.602;2024-01-16T05:32:21;22.70;76.60
59961;DHT22;55902;-37.980;-63.602;2024-01-16T05:34:48;22.70;76.60
59961;DHT22;55902;-37.980;-63.602;2024-01-16T05:37:19;22.60;78.00
59961;DHT22;55902;-37.980;-63.602;2024-01-16T05:39:46;22.50;77.80
59961;DHT22;55902;-37.980;-63.602;2024-01-16T05:42:14;22.40;79.60
59961;DHT22;55902;-37.980;-63.602;2024-01-16T05:44:45;22.20;80.20
59961;DHT22;55902;-37.980;-63.602;2024-01-16T05:47:13;22.10;80.60
59961;DHT22;55902;-37.980;-63.602;2024-01-16T05:49:46;22.10;80.60
59961;DHT22;55902;-37.980;-63.602;2024-01-16T05:52:13;22.10;81.00
59961;DHT22;55902;-37.980;-63.602;2024-01-16T05:54:40;22.00;82.30
59961;DHT22;55902;-37.980;-63.602;2024-01-16T05:57:07;22.00;82.70
59961;DHT22;55902;-37.980;-63.602;2024-01-16T05:59:34;21.80;84.70
59961;DHT22;55902;-37.980;-63.602;2024-01-16T06:02:01;21.70;85.10
59961;DHT22;55902;-37.980;-63.602;2024-01-16T06:04:31;21.60;85.90
59961;DHT22;55902;-37.980;-63.602;2024-01-16T06:06:58;21.50;87.40
59961;DHT22;55902;-37.980;-63.602;2024-01-16T06:09:25;21.40;87.30
59961;DHT22;55902;-37.980;-63.602;2024-01-16T06:11:52;21.30;87.60
59961;DHT22;55902;-37.980;-63.602;2024-01-16T06:14:22;21.30;88.90
59961;DHT22;55902;-37.980;-63.602;2024-01-16T06:16:52;21.20;89.80
59961;DHT22;55902;-37.980;-63.602;2024-01-16T06:19:20;21.10;88.50
59961;DHT22;55902;-37.980;-63.602;2024-01-16T06:21:47;21.10;89.70
59961;DHT22;55902;-37.980;-63.602;2024-01-16T06:24:14;21.00;90.00
59961;DHT22;55902;-37.980;-63.602;2024-01-16T06:26:41;21.00;89.60
59961;DHT22;55902;-37.980;-63.602;2024-01-16T06:29:08;21.00;90.30
59961;DHT22;55902;-37.980;-63.602;2024-01-16T06:31:35;20.90;90.10
59961;DHT22;55902;-37.980;-63.602;2024-01-16T06:34:02;20.80;90.60
59961;DHT22;55902;-37.980;-63.602;2024-01-16T06:36:29;20.70;90.50
59961;DHT22;55902;-37.980;-63.602;2024-01-16T06:38:56;20.70;90.00
59961;DHT22;55902;-37.980;-63.602;2024-01-16T06:41:23;20.60;90.20
59961;DHT22;55902;-37.980;-63.602;2024-01-16T06:43:50;20.60;90.10
59961;DHT22;55902;-37.980;-63.602;2024-01-16T06:49:39;20.60;89.90
59961;DHT22;55902;-37.980;-63.602;2024-01-16T06:52:08;20.60;89.10
59961;DHT22;55902;-37.980;-63.602;2024-01-16T06:54:36;20.50;88.70
59961;DHT22;55902;-37.980;-63.602;2024-01-16T06:57:07;20.60;88.50
59961;DHT22;55902;-37.980;-63.602;2024-01-16T06:59:35;20.50;88.30
59961;DHT22;55902;-37.980;-63.602;2024-01-16T07:06:08;20.60;88.00
59961;DHT22;55902;-37.980;-63.602;2024-01-16T07:08:36;20.50;87.80
59961;DHT22;55902;-37.980;-63.602;2024-01-16T07:11:03;20.50;88.20
59961;DHT22;55902;-37.980;-63.602;2024-01-16T07:13:34;20.60;87.50
59961;DHT22;55902;-37.980;-63.602;2024-01-16T07:16:01;20.50;88.40
59961;DHT22;55902;-37.980;-63.602;2024-01-16T07:18:28;20.50;87.80
59961;DHT22;55902;-37.980;-63.602;2024-01-16T07:20:55;20.50;88.80
59961;DHT22;55902;-37.980;-63.602;2024-01-16T07:23:22;20.50;89.30
59961;DHT22;55902;-37.980;-63.602;2024-01-16T07:25:49;20.50;88.60
59961;DHT22;55902;-37.980;-63.602;2024-01-16T07:28:16;20.40;89.30
59961;DHT22;55902;-37.980;-63.602;2024-01-16T07:30:43;20.40;88.90
59961;DHT22;55902;-37.980;-63.602;2024-01-16T07:33:10;20.40;88.30
59961;DHT22;55902;-37.980;-63.602;2024-01-16T07:35:37;20.40;89.70
59961;DHT22;55902;-37.980;-63.602;2024-01-16T07:38:07;20.40;88.60
59961;DHT22;55902;-37.980;-63.602;2024-01-16T07:40:34;20.40;89.30
59961;DHT22;55902;-37.980;-63.602;2024-01-16T07:43:01;20.30;89.40
59961;DHT22;55902;-37.980;-63.602;2024-01-16T07:45:28;20.30;89.00
59961;DHT22;55902;-37.980;-63.602;2024-01-16T07:47:55;20.30;88.30
59961;DHT22;55902;-37.980;-63.602;2024-01-16T07:50:26;20.20;89.40
59961;DHT22;55902;-37.980;-63.602;2024-01-16T07:52:52;20.20;88.50
59961;DHT22;55902;-37.980;-63.602;2024-01-16T07:55:19;20.10;89.00
59961;DHT22;55902;-37.980;-63.602;2024-01-16T07:57:46;20.10;88.90
59961;DHT22;55902;-37.980;-63.602;2024-01-16T08:00:13;20.00;88.40
59961;DHT22;55902;-37.980;-63.602;2024-01-16T08:02:41;20.00;89.00
59961;DHT22;55902;-37.980;-63.602;2024-01-16T08:05:09;20.00;89.70
59961;DHT22;55902;-37.980;-63.602;2024-01-16T08:07:36;19.90;90.10
59961;DHT22;55902;-37.980;-63.602;2024-01-16T08:10:09;19.90;89.30
59961;DHT22;55902;-37.980;-63.602;2024-01-16T08:12:36;19.80;88.90
59961;DHT22;55902;-37.980;-63.602;2024-01-16T08:15:04;19.80;89.10
59961;DHT22;55902;-37.980;-63.602;2024-01-16T08:27:39;19.60;88.80
59961;DHT22;55902;-37.980;-63.602;2024-01-16T08:30:06;19.60;88.10
59961;DHT22;55902;-37.980;-63.602;2024-01-16T08:32:33;19.50;87.60
59961;DHT22;55902;-37.980;-63.602;2024-01-16T08:35:00;19.50;86.60
59961;DHT22;55902;-37.980;-63.602;2024-01-16T08:37:27;19.50;86.40
59961;DHT22;55902;-37.980;-63.602;2024-01-16T08:39:55;19.50;87.40
59961;DHT22;55902;-37.980;-63.602;2024-01-16T08:42:25;19.50;87.60
59961;DHT22;55902;-37.980;-63.602;2024-01-16T08:44:53;19.40;87.70
59961;DHT22;55902;-37.980;-63.602;2024-01-16T08:47:20;19.40;87.30
59961;DHT22;55902;-37.980;-63.602;2024-01-16T08:49:47;19.40;87.10
59961;DHT22;55902;-37.980;-63.602;2024-01-16T08:52:14;19.40;86.00
59961;DHT22;55902;-37.980;-63.602;2024-01-16T08:54:44;19.40;87.30
59961;DHT22;55902;-37.980;-63.602;2024-01-16T08:57:31;19.30;87.20
59961;DHT22;55902;-37.980;-63.602;2024-01-16T08:59:58;19.20;87.20
59961;DHT22;55902;-37.980;-63.602;2024-01-16T09:02:25;19.20;87.00
59961;DHT22;55902;-37.980;-63.602;2024-01-16T09:04:55;19.20;87.00
59961;DHT22;55902;-37.980;-63.602;2024-01-16T09:10:44;19.10;86.50
59961;DHT22;55902;-37.980;-63.602;2024-01-16T09:13:11;19.10;85.60
59961;DHT22;55902;-37.980;-63.602;2024-01-16T09:15:39;19.10;85.90
59961;DHT22;55902;-37.980;-63.602;2024-01-16T09:18:06;19.10;86.50
59961;DHT22;55902;-37.980;-63.602;2024-01-16T09:20:33;19.10;86.20
59961;DHT22;55902;-37.980;-63.602;2024-01-16T09:23:00;19.00;86.30
59961;DHT22;55902;-37.980;-63.602;2024-01-16T09:25:45;19.10;86.60
59961;DHT22;55902;-37.980;-63.602;2024-01-16T09:31:38;19.10;85.90
59961;DHT22;55902;-37.980;-63.602;2024-01-16T09:34:21;19.20;84.90
59961;DHT22;55902;-37.980;-63.602;2024-01-16T09:37:12;19.20;84.80
59961;DHT22;55902;-37.980;-63.602;2024-01-16T09:39:46;19.20;83.80
59961;DHT22;55902;-37.980;-63.602;2024-01-16T09:45:38;19.20;86.40
59961;DHT22;55902;-37.980;-63.602;2024-01-16T09:48:39;19.20;85.50
59961;DHT22;55902;-37.980;-63.602;2024-01-16T09:51:11;19.20;85.00
59961;DHT22;55902;-37.980;-63.602;2024-01-16T09:53:46;19.30;87.60
59961;DHT22;55902;-37.980;-63.602;2024-01-16T09:59:58;19.30;87.20
59961;DHT22;55902;-37.980;-63.602;2024-01-16T10:02:36;19.30;86.90
59961;DHT22;55902;-37.980;-63.602;2024-01-16T10:05:03;19.30;87.70
59961;DHT22;55902;-37.980;-63.602;2024-01-16T10:07:35;19.40;87.10
59961;DHT22;55902;-37.980;-63.602;2024-01-16T10:10:07;19.60;87.20
59961;DHT22;55902;-37.980;-63.602;2024-01-16T10:12:43;19.70;86.60
59961;DHT22;55902;-37.980;-63.602;2024-01-16T10:19:22;19.90;86.10
59961;DHT22;55902;-37.980;-63.602;2024-01-16T10:22:20;20.00;86.10
59961;DHT22;55902;-37.980;-63.602;2024-01-16T10:24:47;20.10;86.70
59961;DHT22;55902;-37.980;-63.602;2024-01-16T10:37:43;20.40;87.50
59961;DHT22;55902;-37.980;-63.602;2024-01-16T10:40:24;20.60;88.20
59961;DHT22;55902;-37.980;-63.602;2024-01-16T10:43:13;20.70;87.00
59961;DHT22;55902;-37.980;-63.602;2024-01-16T10:46:18;20.90;86.80
59961;DHT22;55902;-37.980;-63.602;2024-01-16T10:49:00;21.30;86.40
59961;DHT22;55902;-37.980;-63.602;2024-01-16T10:51:33;21.40;86.70
59961;DHT22;55902;-37.980;-63.602;2024-01-16T10:54:05;21.40;85.60
59961;DHT22;55902;-37.980;-63.602;2024-01-16T11:03:57;21.50;86.60
59961;DHT22;55902;-37.980;-63.602;2024-01-16T11:06:50;21.60;86.60
59961;DHT22;55902;-37.980;-63.602;2024-01-16T11:09:22;21.70;86.40
59961;DHT22;55902;-37.980;-63.602;2024-01-16T11:11:50;21.70;85.90
59961;DHT22;55902;-37.980;-63.602;2024-01-16T11:14:25;21.80;86.00
59961;DHT22;55902;-37.980;-63.602;2024-01-16T11:17:06;21.80;85.50
59961;DHT22;55902;-37.980;-63.602;2024-01-16T11:19:37;21.90;85.60
59961;DHT22;55902;-37.980;-63.602;2024-01-16T11:22:05;22.10;85.60
59961;DHT22;55902;-37.980;-63.602;2024-01-16T11:24:37;22.40;85.30
59961;DHT22;55902;-37.980;-63.602;2024-01-16T11:27:23;22.70;83.60
59961;DHT22;55902;-37.980;-63.602;2024-01-16T11:29:51;23.00;83.10
59961;DHT22;55902;-37.980;-63.602;2024-01-16T11:32:34;23.20;82.40
59961;DHT22;55902;-37.980;-63.602;2024-01-16T11:35:06;23.30;82.00
59961;DHT22;55902;-37.980;-63.602;2024-01-16T11:37:41;23.40;80.80
59961;DHT22;55902;-37.980;-63.602;2024-01-16T11:40:25;23.40;80.50
59961;DHT22;55902;-37.980;-63.602;2024-01-16T11:42:56;23.40;80.20
59961;DHT22;55902;-37.980;-63.602;2024-01-16T11:48:13;23.40;79.60
59961;DHT22;55902;-37.980;-63.602;2024-01-16T11:50:43;23.50;79.80
59961;DHT22;55902;-37.980;-63.602;2024-01-16T12:02:05;23.70;78.30
59961;DHT22;55902;-37.980;-63.602;2024-01-16T12:04:35;23.80;78.10
59961;DHT22;55902;-37.980;-63.602;2024-01-16T12:07:02;23.90;77.10
59961;DHT22;55902;-37.980;-63.602;2024-01-16T12:09:33;24.20;77.10
59961;DHT22;55902;-37.980;-63.602;2024-01-16T12:12:03;24.60;75.60
59961;DHT22;55902;-37.980;-63.602;2024-01-16T12:14:31;25.10;74.00
59961;DHT22;55902;-37.980;-63.602;2024-01-16T12:17:13;25.70;73.30
59961;DHT22;55902;-37.980;-63.602;2024-01-16T12:19:42;26.40;72.20
59961;DHT22;55902;-37.980;-63.602;2024-01-16T12:22:30;26.90;71.60
59961;DHT22;55902;-37.980;-63.602;2024-01-16T12:24:57;27.60;70.30
59961;DHT22;55902;-37.980;-63.602;2024-01-16T12:27:25;28.00;69.70
59961;DHT22;55902;-37.980;-63.602;2024-01-16T12:30:05;28.50;69.80
59961;DHT22;55902;-37.980;-63.602;2024-01-16T12:32:33;28.90;69.90
59961;DHT22;55902;-37.980;-63.602;2024-01-16T12:35:03;29.30;65.90
59961;DHT22;55902;-37.980;-63.602;2024-01-16T12:37:31;29.60;67.40
59961;DHT22;55902;-37.980;-63.602;2024-01-16T12:39:58;29.90;66.30
59961;DHT22;55902;-37.980;-63.602;2024-01-16T12:42:25;30.30;66.70
59961;DHT22;55902;-37.980;-63.602;2024-01-16T12:44:52;30.50;67.00
59961;DHT22;55902;-37.980;-63.602;2024-01-16T12:47:20;30.80;64.80
59961;DHT22;55902;-37.980;-63.602;2024-01-16T12:49:48;31.10;60.60
59961;DHT22;55902;-37.980;-63.602;2024-01-16T12:52:20;31.20;63.50
59961;DHT22;55902;-37.980;-63.602;2024-01-16T12:54:48;31.30;63.50
59961;DHT22;55902;-37.980;-63.602;2024-01-16T12:57:19;31.50;62.50
59961;DHT22;55902;-37.980;-63.602;2024-01-16T12:59:47;31.70;61.30
59961;DHT22;55902;-37.980;-63.602;2024-01-16T13:02:22;31.90;61.90
59961;DHT22;55902;-37.980;-63.602;2024-01-16T13:05:14;32.00;59.70
59961;DHT22;55902;-37.980;-63.602;2024-01-16T13:08:06;32.20;61.60
59961;DHT22;55902;-37.980;-63.602;2024-01-16T13:14:04;32.70;59.00
59961;DHT22;55902;-37.980;-63.602;2024-01-16T13:17:03;32.80;59.30
59961;DHT22;55902;-37.980;-63.602;2024-01-16T13:19:35;33.00;58.90
59961;DHT22;55902;-37.980;-63.602;2024-01-16T13:22:03;33.20;58.50
59961;DHT22;55902;-37.980;-63.602;2024-01-16T13:24:34;33.40;58.70
59961;DHT22;55902;-37.980;-63.602;2024-01-16T13:27:02;33.60;57.80
59961;DHT22;55902;-37.980;-63.602;2024-01-16T13:29:36;33.70;58.60
59961;DHT22;55902;-37.980;-63.602;2024-01-16T13:32:41;34.00;59.70
59961;DHT22;55902;-37.980;-63.602;2024-01-16T13:35:13;34.30;55.70
59961;DHT22;55902;-37.980;-63.602;2024-01-16T13:44:24;34.70;56.80
59961;DHT22;55902;-37.980;-63.602;2024-01-16T13:46:55;35.00;57.70
59961;DHT22;55902;-37.980;-63.602;2024-01-16T13:49:48;35.20;53.90
59961;DHT22;55902;-37.980;-63.602;2024-01-16T13:58:59;35.70;55.20
59961;DHT22;55902;-37.980;-63.602;2024-01-16T14:04:18;36.00;54.80
59961;DHT22;55902;-37.980;-63.602;2024-01-16T14:06:46;36.10;50.90
59961;DHT22;55902;-37.980;-63.602;2024-01-16T14:09:14;36.00;50.50
59961;DHT22;55902;-37.980;-63.602;2024-01-16T14:11:44;36.10;51.90
59961;DHT22;55902;-37.980;-63.602;2024-01-16T14:14:12;36.30;53.10
59961;DHT22;55902;-37.980;-63.602;2024-01-16T14:19:59;36.70;51.60
59961;DHT22;55902;-37.980;-63.602;2024-01-16T14:22:26;36.80;48.40
59961;DHT22;55902;-37.980;-63.602;2024-01-16T14:24:54;36.80;47.20
59961;DHT22;55902;-37.980;-63.602;2024-01-16T14:27:21;36.90;48.50
59961;DHT22;55902;-37.980;-63.602;2024-01-16T14:29:51;36.70;45.80
59961;DHT22;55902;-37.980;-63.602;2024-01-16T14:32:21;36.60;47.10
59961;DHT22;55902;-37.980;-63.602;2024-01-16T14:34:49;36.50;45.90
59961;DHT22;55902;-37.980;-63.602;2024-01-16T14:37:16;36.40;50.00
59961;DHT22;55902;-37.980;-63.602;2024-01-16T14:39:44;36.60;49.60
59961;DHT22;55902;-37.980;-63.602;2024-01-16T14:42:11;36.70;46.30
59961;DHT22;55902;-37.980;-63.602;2024-01-16T14:44:39;36.60;46.90
59961;DHT22;55902;-37.980;-63.602;2024-01-16T14:47:09;36.60;48.20
59961;DHT22;55902;-37.980;-63.602;2024-01-16T14:49:42;36.80;48.80
59961;DHT22;55902;-37.980;-63.602;2024-01-16T14:52:12;36.90;46.40
59961;DHT22;55902;-37.980;-63.602;2024-01-16T14:54:46;37.00;46.50
59961;DHT22;55902;-37.980;-63.602;2024-01-16T14:57:41;37.00;45.30
59961;DHT22;55902;-37.980;-63.602;2024-01-16T15:00:09;37.20;47.60
59961;DHT22;55902;-37.980;-63.602;2024-01-16T15:03:03;37.30;46.00
59961;DHT22;55902;-37.980;-63.602;2024-01-16T15:05:30;37.40;47.30
59961;DHT22;55902;-37.980;-63.602;2024-01-16T15:08:00;37.50;46.90
59961;DHT22;55902;-37.980;-63.602;2024-01-16T15:10:27;37.70;44.20
59961;DHT22;55902;-37.980;-63.602;2024-01-16T15:12:54;37.90;44.80
59961;DHT22;55902;-37.980;-63.602;2024-01-16T15:15:24;38.00;44.60
59961;DHT22;55902;-37.980;-63.602;2024-01-16T15:17:51;38.10;42.30
59961;DHT22;55902;-37.980;-63.602;2024-01-16T15:20:18;38.10;43.70
59961;DHT22;55902;-37.980;-63.602;2024-01-16T15:22:46;38.20;43.10
59961;DHT22;55902;-37.980;-63.602;2024-01-16T15:25:19;38.30;44.20
59961;DHT22;55902;-37.980;-63.602;2024-01-16T15:27:52;38.20;42.00
59961;DHT22;55902;-37.980;-63.602;2024-01-16T15:30:22;38.20;42.60
59961;DHT22;55902;-37.980;-63.602;2024-01-16T15:32:54;38.10;42.10
59961;DHT22;55902;-37.980;-63.602;2024-01-16T15:35:21;38.20;41.80
59961;DHT22;55902;-37.980;-63.602;2024-01-16T15:41:29;38.30;40.70
59961;DHT22;55902;-37.980;-63.602;2024-01-16T15:44:15;38.40;41.50
59961;DHT22;55902;-37.980;-63.602;2024-01-16T15:47:14;38.50;42.80
59961;DHT22;55902;-37.980;-63.602;2024-01-16T15:49:41;38.50;39.20
59961;DHT22;55902;-37.980;-63.602;2024-01-16T15:52:39;38.50;41.50
59961;DHT22;55902;-37.980;-63.602;2024-01-16T15:55:06;38.60;41.40
59961;DHT22;55902;-37.980;-63.602;2024-01-16T15:57:33;38.70;42.30
59961;DHT22;55902;-37.980;-63.602;2024-01-16T16:00:00;38.70;41.00
59961;DHT22;55902;-37.980;-63.602;2024-01-16T16:02:31;38.90;40.90
59961;DHT22;55902;-37.980;-63.602;2024-01-16T16:04:59;39.10;40.40
59961;DHT22;55902;-37.980;-63.602;2024-01-16T16:07:26;39.20;39.60
59961;DHT22;55902;-37.980;-63.602;2024-01-16T16:09:52;39.10;40.80
59961;DHT22;55902;-37.980;-63.602;2024-01-16T16:12:20;39.10;41.10
59961;DHT22;55902;-37.980;-63.602;2024-01-16T16:14:50;39.10;40.70
59961;DHT22;55902;-37.980;-63.602;2024-01-16T16:17:18;39.10;41.40
59961;DHT22;55902;-37.980;-63.602;2024-01-16T16:20:08;39.10;39.80
59961;DHT22;55902;-37.980;-63.602;2024-01-16T16:22:38;39.30;40.00
59961;DHT22;55902;-37.980;-63.602;2024-01-16T16:25:06;39.50;42.00
59961;DHT22;55902;-37.980;-63.602;2024-01-16T16:27:33;39.70;40.50
59961;DHT22;55902;-37.980;-63.602;2024-01-16T16:30:00;39.80;39.60
59961;DHT22;55902;-37.980;-63.602;2024-01-16T16:32:30;40.00;39.00
59961;DHT22;55902;-37.980;-63.602;2024-01-16T16:34:59;40.00;38.70
59961;DHT22;55902;-37.980;-63.602;2024-01-16T16:37:30;40.10;38.50
59961;DHT22;55902;-37.980;-63.602;2024-01-16T16:39:58;40.20;38.90
59961;DHT22;55902;-37.980;-63.602;2024-01-16T16:42:29;40.20;36.50
59961;DHT22;55902;-37.980;-63.602;2024-01-16T16:44:57;40.10;37.00
59961;DHT22;55902;-37.980;-63.602;2024-01-16T16:54:23;40.70;38.50
59961;DHT22;55902;-37.980;-63.602;2024-01-16T16:56:50;41.00;37.30